Time;durP1;ratioP1;P1;durP2;ratioP2;P2;SDS_P1;SDS_P2;PMS_P1;PMS_P2;Temp;Humidity;BMP_temperature;BMP_pressure;BME280_temperature;BME280_humidity;BME280_pressure;Samples;Min_cycle;Max_cycle;Signal;HPM_P1;HPM_P2
2024/03/07 00:00:30;;;;;;;;;23.50;22.25;;;;;13.15;100.00;101623.50;2095534;28;46817;-51
2024/03/07 00:01:31;;;;;;;;;22.25;22.25;;;;;13.16;100.00;101624.38;2095602;28;46262;-52
2024/03/07 00:02:33;;;;;;;;;17.80;17.80;;;;;13.12;100.00;101620.91;2096081;28;45575;-51
2024/03/07 00:03:34;;;;;;;;;20.40;20.40;;;;;13.10;100.00;101621.84;2095295;28;48169;-53
2024/03/07 00:04:36;;;;;;;;;15.75;15.75;;;;;13.12;100.00;101622.69;2095680;28;46821;-50
2024/03/07 00:05:36;;;;;;;;;22.60;22.20;;;;;13.08;100.00;101620.97;2095955;28;46408;-49
2024/03/07 00:06:36;;;;;;;;;27.75;24.50;;;;;13.06;100.00;101620.13;2095686;28;46242;-51
2024/03/07 00:07:37;;;;;;;;;19.00;18.00;;;;;13.06;100.00;101622.78;2095516;28;46425;-49
2024/03/07 00:08:37;;;;;;;;;18.25;18.25;;;;;13.05;100.00;101619.25;2096018;28;46636;-50
2024/03/07 00:09:38;;;;;;;;;21.00;21.00;;;;;13.05;100.00;101621.91;2095810;28;46270;-50
2024/03/07 00:10:38;;;;;;;;;21.50;21.50;;;;;13.06;100.00;101618.31;2095949;28;46464;-48
2024/03/07 00:11:39;;;;;;;;;21.75;20.00;;;;;13.06;100.00;101620.13;2094451;28;46863;-49
2024/03/07 00:12:42;;;;;;;;;24.75;23.75;;;;;13.07;100.00;101620.09;2086640;28;46610;-51
2024/03/07 00:13:43;;;;;;;;;22.60;20.00;;;;;13.06;100.00;101618.31;2087033;28;47372;-50
2024/03/07 00:14:44;;;;;;;;;19.25;16.50;;;;;13.06;100.00;101612.13;2095384;28;47177;-54
2024/03/07 00:15:44;;;;;;;;;20.33;20.00;;;;;13.12;100.00;101612.91;2095342;28;45270;-50
2024/03/07 00:16:44;;;;;;;;;23.50;21.00;;;;;13.10;100.00;101611.19;2095954;28;45806;-48
2024/03/07 00:17:45;;;;;;;;;20.25;20.00;;;;;13.08;100.00;101607.63;2095159;28;46898;-50
2024/03/07 00:18:45;;;;;;;;;18.25;18.25;;;;;13.06;100.00;101614.78;2086832;28;46774;-49
2024/03/07 00:19:47;;;;;;;;;19.50;18.75;;;;;13.03;100.00;101609.53;2086131;28;46241;-50
2024/03/07 00:20:48;;;;;;;;;21.00;20.00;;;;;13.03;100.00;101609.53;2095287;28;46631;-53
2024/03/07 00:21:48;;;;;;;;;20.25;20.25;;;;;13.01;100.00;101606.88;2095927;28;46310;-51
2024/03/07 00:22:48;;;;;;;;;18.00;18.00;;;;;13.00;100.00;101613.13;2095895;28;46643;-53
2024/03/07 00:23:49;;;;;;;;;17.50;17.50;;;;;13.08;100.00;101608.50;2095531;28;46372;-52
2024/03/07 00:24:49;;;;;;;;;19.25;19.00;;;;;13.01;100.00;101609.56;2095870;28;46858;-51
2024/03/07 00:25:49;;;;;;;;;17.50;17.50;;;;;13.00;100.00;101614.91;2095579;28;46485;-51
2024/03/07 00:26:51;;;;;;;;;22.50;20.00;;;;;12.95;100.00;101618.50;2095538;28;46736;-52
2024/03/07 00:27:53;;;;;;;;;21.60;21.00;;;;;12.96;100.00;101622.09;2095499;28;46935;-51
2024/03/07 00:28:54;;;;;;;;;21.20;20.00;;;;;12.86;100.00;101615.16;2094726;28;46916;-52
2024/03/07 00:29:54;;;;;;;;;21.25;19.00;;;;;12.82;100.00;101622.28;2095499;28;46271;-53
2024/03/07 00:30:55;;;;;;;;;22.00;20.75;;;;;12.95;100.00;101606.97;2095347;28;46347;-52
2024/03/07 00:31:55;;;;;;;;;21.25;18.75;;;;;12.98;100.00;101619.38;2095437;28;47001;-53
2024/03/07 00:32:57;;;;;;;;;20.00;20.00;;;;;12.98;100.00;101614.94;2095102;28;46323;-52
2024/03/07 00:33:57;;;;;;;;;18.20;17.80;;;;;13.01;100.00;101611.34;2095149;28;46418;-53
2024/03/07 00:34:58;;;;;;;;;21.25;20.00;;;;;13.01;100.00;101606.88;2086391;28;46493;-50
2024/03/07 00:35:58;;;;;;;;;22.25;22.00;;;;;13.01;100.00;101614.88;2086537;28;46184;-52
2024/03/07 00:36:59;;;;;;;;;22.75;21.00;;;;;13.02;100.00;101616.63;2095014;28;46484;-51
2024/03/07 00:37:59;;;;;;;;;23.00;19.50;;;;;12.98;100.00;101611.41;2095353;28;46625;-53
2024/03/07 00:38:59;;;;;;;;;23.75;23.50;;;;;12.93;100.00;101608.78;2095119;28;46349;-52
2024/03/07 00:40:00;;;;;;;;;27.50;23.50;;;;;12.92;100.00;101613.25;2096056;28;46516;-53
2024/03/07 00:41:00;;;;;;;;;27.25;21.25;;;;;12.92;100.00;101613.25;2095728;28;46941;-53
2024/03/07 00:42:02;;;;;;;;;22.75;22.25;;;;;13.00;100.00;101612.25;2095848;28;46301;-51
2024/03/07 00:43:02;;;;;;;;;26.80;24.80;;;;;13.01;100.00;101612.22;2095395;28;46619;-52
2024/03/07 00:44:03;;;;;;;;;22.50;21.25;;;;;13.07;100.00;101609.44;2095276;28;46357;-52
2024/03/07 00:45:04;;;;;;;;;23.50;23.50;;;;;13.08;100.00;101611.19;2095397;28;46452;-52
2024/03/07 00:46:06;;;;;;;;;24.80;23.80;;;;;13.09;100.00;101612.97;2085328;28;46851;-51
2024/03/07 00:47:07;;;;;;;;;25.80;25.00;;;;;13.08;100.00;101605.84;2085445;28;46620;-52
2024/03/07 00:48:08;;;;;;;;;23.00;21.75;;;;;13.07;100.00;101605.88;2093671;28;46273;-52
2024/03/07 00:49:08;;;;;;;;;25.75;23.00;;;;;13.17;100.00;101603.03;2095093;28;46380;-52
2024/03/07 00:50:09;;;;;;;;;30.25;24.25;;;;;13.15;100.00;101606.63;2095137;28;46994;-53
2024/03/07 00:51:09;;;;;;;;;21.00;21.00;;;;;13.00;100.00;101609.56;2085611;28;46574;-51
2024/03/07 00:52:10;;;;;;;;;26.25;22.00;;;;;12.99;100.00;101611.38;2084892;28;46692;-52
2024/03/07 00:53:10;;;;;;;;;25.00;24.75;;;;;12.95;100.00;101606.97;2095319;28;45774;-52
2024/03/07 00:54:12;;;;;;;;;25.25;23.00;;;;;13.04;100.00;101601.50;2095240;28;46767;-51
2024/03/07 00:55:14;;;;;;;;;29.60;24.60;;;;;13.02;100.00;101603.31;2095514;28;46575;-51
2024/03/07 00:56:15;;;;;;;;;30.20;26.80;;;;;13.01;100.00;101603.34;2095389;28;47001;-51
2024/03/07 00:57:15;;;;;;;;;27.00;25.25;;;;;13.03;100.00;101597.06;2095587;28;46825;-52
2024/03/07 00:58:16;;;;;;;;;32.00;28.50;;;;;13.01;100.00;101593.56;2095358;28;46029;-51
2024/03/07 00:59:16;;;;;;;;;29.80;28.00;;;;;13.01;100.00;101596.22;2094206;28;46414;-49
2024/03/07 01:00:21;;;;;;;;;25.50;25.50;;;;;12.91;100.00;101599.94;2095379;28;46323;-50
2024/03/07 01:01:21;;;;;;;;;27.40;23.60;;;;;12.96;100.00;101596.31;2095594;28;46961;-51
2024/03/07 01:02:22;;;;;;;;;28.50;28.50;;;;;12.92;100.00;101594.59;2095479;28;46526;-52
2024/03/07 01:03:24;;;;;;;;;27.75;26.75;;;;;12.91;100.00;101590.16;2095249;28;47006;-52
2024/03/07 01:04:24;;;;;;;;;27.60;26.80;;;;;12.88;100.00;101600.00;2095716;28;46290;-50
2024/03/07 01:05:25;;;;;;;;;22.25;21.25;;;;;12.93;100.00;101601.69;2095465;28;46294;-51
2024/03/07 01:06:25;;;;;;;;;25.50;25.50;;;;;12.93;100.00;101593.69;2095555;28;46620;-52
2024/03/07 01:07:27;;;;;;;;;27.00;25.25;;;;;12.94;100.00;101599.88;2094996;28;46460;-51
2024/03/07 01:08:28;;;;;;;;;21.20;21.20;;;;;13.04;100.00;101592.63;2095324;28;46507;-49
2024/03/07 01:09:28;;;;;;;;;25.50;23.75;;;;;13.04;100.00;101596.16;2085086;28;46726;-51
2024/03/07 01:10:29;;;;;;;;;26.75;26.75;;;;;13.07;100.00;101592.56;2085364;28;46588;-52
2024/03/07 01:11:29;;;;;;;;;28.00;25.25;;;;;13.07;100.00;101590.78;2094679;28;48393;-53
2024/03/07 01:12:30;;;;;;;;;20.25;20.25;;;;;13.06;100.00;101591.69;2090313;28;46445;-50
2024/03/07 01:13:31;;;;;;;;;27.40;25.20;;;;;13.03;100.00;101588.19;2089549;28;46827;-52
2024/03/07 01:14:31;;;;;;;;;26.75;23.50;;;;;12.94;100.00;101591.91;2095060;28;46857;-53
2024/03/07 01:15:32;;;;;;;;;23.00;22.00;;;;;12.91;100.00;101594.63;2095379;28;46751;-53
2024/03/07 01:16:32;;;;;;;;;20.20;19.00;;;;;12.87;100.00;101585.81;2094123;28;46788;-53
2024/03/07 01:17:33;;;;;;;;;24.75;24.25;;;;;12.87;100.00;101593.81;2094947;28;47211;-51
2024/03/07 01:18:33;;;;;;;;;22.75;21.50;;;;;12.81;100.00;101585.03;2095528;28;46591;-50
2024/03/07 01:19:34;;;;;;;;;24.50;23.50;;;;;12.83;100.00;101586.78;2095167;28;46337;-53
2024/03/07 01:20:35;;;;;;;;;25.25;24.75;;;;;12.83;100.00;101591.19;2095403;28;46875;-53
2024/03/07 01:21:36;;;;;;;;;23.00;21.60;;;;;12.79;100.00;101597.50;2095553;28;46217;-54
2024/03/07 01:22:36;;;;;;;;;22.00;22.00;;;;;12.87;100.00;101590.25;2095638;28;46274;-51
2024/03/07 01:23:36;;;;;;;;;22.00;22.00;;;;;12.80;100.00;101593.91;2095448;28;46227;-49
2024/03/07 01:24:37;;;;;;;;;28.75;24.75;;;;;12.82;100.00;101584.13;2095554;28;45816;-52
2024/03/07 01:25:37;;;;;;;;;23.50;23.50;;;;;12.80;100.00;101578.81;2094890;28;46777;-51
2024/03/07 01:26:38;;;;;;;;;25.00;22.75;;;;;12.82;100.00;101585.00;2095360;28;46252;-51
2024/03/07 01:27:38;;;;;;;;;21.50;20.00;;;;;12.75;100.00;101583.34;2095235;28;46218;-51
2024/03/07 01:28:38;;;;;;;;;22.75;22.00;;;;;12.83;100.00;101576.13;2095534;28;46638;-49
2024/03/07 01:29:41;;;;;;;;;25.50;24.75;;;;;12.86;100.00;101576.06;2095006;28;46491;-51
2024/03/07 01:30:41;;;;;;;;;23.60;23.40;;;;;12.86;100.00;101573.41;2095002;28;46250;-48
2024/03/07 01:31:42;;;;;;;;;20.75;20.00;;;;;12.85;100.00;101573.44;2095123;28;46834;-52
2024/03/07 01:32:43;;;;;;;;;21.60;21.40;;;;;12.73;100.00;101571.84;2100399;28;46939;-51
2024/03/07 01:33:44;;;;;;;;;27.50;22.50;;;;;12.73;100.00;101565.66;2100809;28;45369;-53
2024/03/07 01:34:44;;;;;;;;;22.00;22.00;;;;;12.72;100.00;101571.88;2103140;28;46809;-50
2024/03/07 01:35:45;;;;;;;;;19.75;18.75;;;;;12.77;100.00;101572.69;2102535;28;46445;-52
2024/03/07 01:36:45;;;;;;;;;22.80;21.80;;;;;12.78;100.00;101571.75;2103055;28;46585;-49
2024/03/07 01:37:46;;;;;;;;;20.75;20.00;;;;;12.78;100.00;101569.97;2103550;28;46061;-52
2024/03/07 01:38:46;;;;;;;;;22.25;19.50;;;;;12.77;100.00;101564.69;2102614;28;46841;-53
2024/03/07 01:39:47;;;;;;;;;20.00;17.00;;;;;12.78;100.00;101571.75;2102868;28;45856;-51
2024/03/07 01:40:48;;;;;;;;;23.00;22.25;;;;;12.86;100.00;101561.88;2102911;28;46840;-53
2024/03/07 01:41:49;;;;;;;;;19.40;19.40;;;;;12.80;100.00;101556.63;2102943;28;46472;-51
2024/03/07 01:42:50;;;;;;;;;21.75;21.75;;;;;12.79;100.00;101557.53;2102860;28;46887;-53
2024/03/07 01:43:50;;;;;;;;;23.25;21.75;;;;;12.76;100.00;101553.16;2103523;28;46395;-52
2024/03/07 01:44:51;;;;;;;;;24.75;21.00;;;;;12.78;100.00;101558.44;2102641;28;46698;-53
2024/03/07 01:45:56;;;;;;;;;20.80;20.80;;;;;12.79;100.00;101553.09;2102033;28;46191;-52
2024/03/07 01:47:03;;;;;;;;;22.20;22.20;;;;;12.76;100.00;101544.28;2094021;28;46093;-49
2024/03/07 01:48:09;;;;;;;;;22.80;21.20;;;;;12.77;100.00;101541.59;2091324;28;46578;-53
2024/03/07 01:49:10;;;;;;;;;24.40;24.20;;;;;12.77;100.00;101548.69;2103022;28;46593;-53
2024/03/07 01:50:10;;;;;;;;;18.75;17.50;;;;;12.72;100.00;101545.25;2102695;28;46249;-54
2024/03/07 01:51:10;;;;;;;;;22.00;21.75;;;;;12.73;100.00;101544.34;2102880;28;46744;-53
2024/03/07 01:52:12;;;;;;;;;39.75;35.00;;;;;12.71;100.00;101544.38;2103343;28;46698;-54
2024/03/07 01:53:14;;;;;;;;;53.80;45.20;;;;;12.79;100.00;101546.88;2084207;28;46677;-54
2024/03/07 01:54:14;;;;;;;;;71.80;55.60;;;;;12.83;100.00;101540.59;2085300;28;46826;-54
2024/03/07 01:55:16;;;;;;;;;52.00;45.00;;;;;12.95;100.00;101541.25;2103260;28;46221;-54
2024/03/07 01:56:18;;;;;;;;;33.60;32.40;;;;;12.94;100.00;101530.63;2084350;28;46413;-52
2024/03/07 01:57:18;;;;;;;;;29.40;28.20;;;;;12.98;100.00;101529.69;2085446;28;46720;-53
2024/03/07 01:58:21;;;;;;;;;24.00;23.00;;;;;12.96;100.00;101531.50;2102949;28;46662;-54
2024/03/07 01:59:22;;;;;;;;;24.40;23.00;;;;;13.00;100.00;101529.66;2102698;28;46000;-52
2024/03/07 02:00:22;;;;;;;;;26.20;22.80;;;;;13.00;100.00;101526.97;2102779;28;46706;-49
2024/03/07 02:01:22;;;;;;;;;24.25;22.75;;;;;12.89;100.00;101529.84;2102911;28;46347;-52
2024/03/07 02:02:23;;;;;;;;;20.50;20.50;;;;;12.92;100.00;101521.78;2102519;28;46800;-52
2024/03/07 02:03:23;;;;;;;;;25.25;25.25;;;;;12.90;100.00;101527.13;2102788;28;46375;-53
2024/03/07 02:04:24;;;;;;;;;27.00;24.50;;;;;12.87;100.00;101521.00;2092941;28;45029;-49
2024/03/07 02:05:24;;;;;;;;;23.75;22.50;;;;;12.84;100.00;101524.59;2091483;28;46586;-50
2024/03/07 02:06:25;;;;;;;;;25.25;22.50;;;;;12.87;100.00;101519.22;2102918;28;46684;-48
2024/03/07 02:07:26;;;;;;;;;24.80;22.80;;;;;12.86;100.00;101520.13;2103044;28;47639;-51
2024/03/07 02:08:26;;;;;;;;;22.75;22.75;;;;;12.86;100.00;101517.47;2102986;28;46301;-52
2024/03/07 02:09:27;;;;;;;;;26.50;25.00;;;;;12.85;100.00;101522.81;2102752;28;46593;-49
2024/03/07 02:10:27;;;;;;;;;24.25;22.75;;;;;12.71;100.00;101517.75;2103690;28;46150;-50
2024/03/07 02:11:28;;;;;;;;;24.25;24.25;;;;;12.76;100.00;101518.53;2102453;28;46311;-51
2024/03/07 02:12:29;;;;;;;;;23.50;22.50;;;;;12.76;100.00;101515.88;2103385;28;46328;-50
2024/03/07 02:13:31;;;;;;;;;21.20;20.20;;;;;12.68;100.00;101512.44;2093052;28;46940;-52
2024/03/07 02:14:31;;;;;;;;;22.60;20.40;;;;;12.67;100.00;101514.22;2094033;28;47002;-49
2024/03/07 02:15:32;;;;;;;;;20.75;20.75;;;;;12.69;100.00;101508.88;2103308;28;46618;-51
2024/03/07 02:16:33;;;;;;;;;21.25;19.00;;;;;12.68;100.00;101507.13;2102669;28;46252;-52
2024/03/07 02:17:35;;;;;;;;;24.00;24.00;;;;;12.70;100.00;101507.97;2103050;28;46574;-51
2024/03/07 02:18:38;;;;;;;;;19.60;19.20;;;;;12.73;100.00;101507.94;2102866;28;47068;-52
2024/03/07 02:19:38;;;;;;;;;26.00;25.80;;;;;12.73;100.00;101510.59;2102910;28;48214;-53
2024/03/07 02:20:43;;;;;;;;;27.75;27.00;;;;;12.76;100.00;101504.34;2103345;28;46292;-51
2024/03/07 02:21:43;;;;;;;;;23.60;23.20;;;;;12.68;100.00;101504.47;2101270;28;46332;-51
2024/03/07 02:22:43;;;;;;;;;21.00;21.00;;;;;12.72;100.00;101500.84;2103385;28;46609;-52
2024/03/07 02:23:44;;;;;;;;;21.75;21.50;;;;;12.73;100.00;101499.06;2102884;28;46396;-50
2024/03/07 02:24:45;;;;;;;;;24.75;24.50;;;;;12.72;100.00;101506.19;2102141;28;46580;-52
2024/03/07 02:25:45;;;;;;;;;24.20;24.20;;;;;12.71;100.00;101504.44;2103230;28;46582;-49
2024/03/07 02:26:45;;;;;;;;;24.50;22.75;;;;;12.72;100.00;101505.31;2102441;28;46353;-52
2024/03/07 02:27:46;;;;;;;;;21.75;21.75;;;;;12.71;100.00;101504.44;2102615;28;46988;-54
2024/03/07 02:28:46;;;;;;;;;21.25;21.25;;;;;12.70;100.00;101501.75;2102725;28;46824;-52
2024/03/07 02:29:47;;;;;;;;;23.50;22.25;;;;;12.70;100.00;101499.09;2102246;28;46335;-48
2024/03/07 02:30:47;;;;;;;;;25.00;25.00;;;;;12.66;100.00;101499.16;2102727;28;46486;-51
2024/03/07 02:31:47;;;;;;;;;24.50;23.00;;;;;12.66;100.00;101509.81;2102314;28;46545;-50
2024/03/07 02:32:51;;;;;;;;;23.00;22.00;;;;;12.66;100.00;101500.94;2096159;28;46703;-51
2024/03/07 02:33:52;;;;;;;;;27.00;27.00;;;;;12.62;100.00;101501.91;2077161;28;47493;-50
2024/03/07 02:34:53;;;;;;;;;23.60;23.60;;;;;12.63;100.00;101493.91;2077813;28;46371;-52
2024/03/07 02:35:53;;;;;;;;;20.50;20.25;;;;;12.69;100.00;101495.56;2095283;28;46194;-49
2024/03/07 02:36:53;;;;;;;;;24.00;24.00;;;;;12.71;100.00;101495.56;2094888;28;46152;-53
2024/03/07 02:37:54;;;;;;;;;25.25;25.25;;;;;12.73;100.00;101499.06;2094829;28;46467;-50
2024/03/07 02:38:54;;;;;;;;;24.00;23.25;;;;;12.72;100.00;101497.31;2094916;28;46229;-52
2024/03/07 02:39:54;;;;;;;;;24.25;20.50;;;;;12.76;100.00;101483.91;2095264;28;45528;-52
2024/03/07 02:40:55;;;;;;;;;28.00;25.00;;;;;12.72;100.00;101489.31;2094648;28;46702;-51
2024/03/07 02:41:56;;;;;;;;;23.40;21.60;;;;;12.70;100.00;101485.78;2094743;28;46454;-50
2024/03/07 02:42:57;;;;;;;;;25.00;22.00;;;;;12.66;100.00;101485.84;2085839;28;46529;-52
2024/03/07 02:43:58;;;;;;;;;23.40;23.40;;;;;12.64;100.00;101485.00;2085522;28;46654;-50
2024/03/07 02:44:58;;;;;;;;;24.50;24.00;;;;;12.63;100.00;101480.59;2094806;28;46434;-50
2024/03/07 02:45:58;;;;;;;;;25.75;24.75;;;;;12.61;100.00;101476.19;2094684;28;46169;-53
2024/03/07 02:46:59;;;;;;;;;30.00;26.00;;;;;12.67;100.00;101479.59;2094974;28;46302;-51
2024/03/07 02:47:59;;;;;;;;;25.00;23.50;;;;;12.65;100.00;101481.44;2094813;28;46284;-51
2024/03/07 02:49:00;;;;;;;;;23.25;21.25;;;;;12.62;100.00;101476.16;2095006;28;46729;-51
2024/03/07 02:50:00;;;;;;;;;24.75;24.75;;;;;12.62;100.00;101477.94;2094976;28;46453;-52
2024/03/07 02:51:00;;;;;;;;;21.50;20.75;;;;;12.45;100.00;101478.25;2094923;28;46612;-51
2024/03/07 02:52:01;;;;;;;;;27.25;26.25;;;;;12.41;100.00;101479.19;2094851;28;46538;-51
2024/03/07 02:53:03;;;;;;;;;28.25;26.25;;;;;12.37;100.00;101481.03;2094577;28;46140;-49
2024/03/07 02:54:05;;;;;;;;;24.20;22.60;;;;;12.36;100.00;101473.09;2093921;28;47023;-52
2024/03/07 02:55:10;;;;;;;;;30.40;27.00;;;;;12.36;100.00;101475.75;2095145;28;46902;-51
2024/03/07 02:56:11;;;;;;;;;25.60;24.00;;;;;12.33;100.00;101478.47;2095261;28;46103;-50
2024/03/07 02:57:11;;;;;;;;;26.80;26.80;;;;;12.33;100.00;101474.03;2093749;28;46499;-50
2024/03/07 02:58:12;;;;;;;;;25.25;24.75;;;;;12.32;100.00;101474.00;2094475;28;45600;-51
2024/03/07 02:59:13;;;;;;;;;24.50;23.00;;;;;12.32;100.00;101471.34;2095277;28;46615;-52
2024/03/07 03:00:19;;;;;;;;;27.60;25.20;;;;;12.31;100.00;101464.28;2094842;28;46795;-50
2024/03/07 03:01:20;;;;;;;;;25.20;23.00;;;;;12.32;100.00;101469.59;2094849;28;46405;-51
2024/03/07 03:02:20;;;;;;;;;26.25;24.25;;;;;12.37;100.00;101478.38;2095118;28;46852;-48
2024/03/07 03:03:20;;;;;;;;;27.00;25.75;;;;;12.35;100.00;101466.88;2094783;28;46223;-54
2024/03/07 03:04:21;;;;;;;;;29.00;26.50;;;;;12.31;100.00;101474.94;2095206;28;46303;-49
2024/03/07 03:05:22;;;;;;;;;26.00;25.75;;;;;12.32;100.00;101466.03;2095224;28;46423;-48
2024/03/07 03:06:22;;;;;;;;;27.40;25.80;;;;;12.47;100.00;101470.25;2094504;28;46723;-51
2024/03/07 03:07:23;;;;;;;;;25.25;24.50;;;;;12.52;100.00;101463.91;2094700;28;46388;-51
2024/03/07 03:08:24;;;;;;;;;27.75;27.50;;;;;12.57;100.00;101471.81;2094501;28;46818;-51
2024/03/07 03:09:24;;;;;;;;;27.50;27.25;;;;;12.58;100.00;101466.50;2094814;28;46570;-49
2024/03/07 03:10:28;;;;;;;;;28.25;26.00;;;;;12.59;100.00;101476.22;2093610;28;45361;-50
2024/03/07 03:11:29;;;;;;;;;27.20;24.40;;;;;12.59;100.00;101464.69;2084634;28;46453;-53
2024/03/07 03:12:30;;;;;;;;;23.00;23.00;;;;;12.59;100.00;101470.91;2085168;28;46264;-52
2024/03/07 03:13:30;;;;;;;;;27.50;25.00;;;;;12.59;100.00;101470.03;2094908;28;46734;-49
2024/03/07 03:14:30;;;;;;;;;27.00;25.00;;;;;12.56;100.00;101468.28;2095078;28;46211;-52
2024/03/07 03:15:31;;;;;;;;;27.75;27.25;;;;;12.58;100.00;101468.28;2094943;28;46278;-51
2024/03/07 03:16:31;;;;;;;;;31.25;26.75;;;;;12.60;100.00;101466.47;2095724;28;46245;-49
2024/03/07 03:17:31;;;;;;;;;25.25;24.75;;;;;12.54;100.00;101466.56;2096390;28;45729;-53
2024/03/07 03:18:33;;;;;;;;;26.50;25.25;;;;;12.57;100.00;101467.38;2096133;28;46663;-50
2024/03/07 03:19:34;;;;;;;;;29.00;27.20;;;;;12.48;100.00;101467.56;2095603;28;46926;-48
2024/03/07 03:20:38;;;;;;;;;33.25;30.25;;;;;12.44;100.00;101465.81;2087127;28;46508;-52
2024/03/07 03:21:38;;;;;;;;;27.20;25.60;;;;;12.39;100.00;101465.03;2087641;28;46030;-53
2024/03/07 03:22:39;;;;;;;;;26.75;25.25;;;;;12.40;100.00;101465.91;2086872;28;46267;-53
2024/03/07 03:23:40;;;;;;;;;25.00;23.00;;;;;12.24;100.00;101459.97;2087090;28;46416;-52
2024/03/07 03:24:41;;;;;;;;;26.00;23.00;;;;;12.23;100.00;101463.56;2095921;28;46946;-53
2024/03/07 03:25:42;;;;;;;;;28.00;26.75;;;;;12.36;100.00;101457.13;2096058;28;46212;-49
2024/03/07 03:26:42;;;;;;;;;17.40;15.00;;;;;12.37;100.00;101459.75;2094065;28;46920;-50
2024/03/07 03:27:42;;;;;;;;;27.50;23.00;;;;;12.37;100.00;101462.41;2095299;28;46578;-49
2024/03/07 03:28:43;;;;;;;;;24.25;23.75;;;;;12.47;100.00;101454.28;2095913;28;46275;-51
2024/03/07 03:29:44;;;;;;;;;25.75;23.75;;;;;12.25;100.00;101454.63;2096283;28;45327;-52
2024/03/07 03:30:45;;;;;;;;;25.00;25.00;;;;;12.19;100.00;101454.72;2095804;28;46416;-49
2024/03/07 03:31:45;;;;;;;;;26.25;24.25;;;;;12.19;100.00;101451.19;2095926;28;46587;-50
2024/03/07 03:32:46;;;;;;;;;23.75;23.75;;;;;12.20;100.00;101455.63;2101395;28;46559;-51
2024/03/07 03:33:47;;;;;;;;;23.80;21.00;;;;;12.15;100.00;101445.03;2103433;28;46316;-52
2024/03/07 03:34:47;;;;;;;;;23.50;23.50;;;;;12.20;100.00;101450.31;2104383;28;46403;-52
2024/03/07 03:35:48;;;;;;;;;25.50;23.25;;;;;12.27;100.00;101450.16;2103895;28;46626;-53
2024/03/07 03:36:48;;;;;;;;;22.25;22.25;;;;;12.29;100.00;101445.69;2101890;28;46240;-48
2024/03/07 03:37:49;;;;;;;;;27.00;27.00;;;;;12.26;100.00;101447.53;2094642;28;46395;-49
2024/03/07 03:38:50;;;;;;;;;24.00;23.25;;;;;12.27;100.00;101444.84;2094831;28;46165;-53
2024/03/07 03:39:50;;;;;;;;;28.75;25.75;;;;;12.14;100.00;101437.09;2103975;28;46751;-52
2024/03/07 03:40:50;;;;;;;;;27.00;23.75;;;;;12.21;100.00;101444.94;2103119;28;46547;-52
2024/03/07 03:41:51;;;;;;;;;27.25;25.50;;;;;12.28;100.00;101443.03;2104098;28;46710;-52
2024/03/07 03:42:51;;;;;;;;;25.25;24.00;;;;;12.37;100.00;101437.56;2094815;28;45783;-53
2024/03/07 03:43:53;;;;;;;;;25.50;25.50;;;;;12.40;100.00;101431.31;2093381;28;46547;-50
2024/03/07 03:44:53;;;;;;;;;23.40;22.60;;;;;12.33;100.00;101436.75;2103951;28;46358;-51
2024/03/07 03:45:53;;;;;;;;;29.75;26.00;;;;;12.35;100.00;101440.28;2103642;28;46705;-50
2024/03/07 03:46:53;;;;;;;;;29.75;24.50;;;;;12.34;100.00;101438.50;2103159;28;46280;-49
2024/03/07 03:47:54;;;;;;;;;24.00;23.75;;;;;12.23;100.00;101448.47;2102214;28;46604;-50
2024/03/07 03:48:54;;;;;;;;;18.00;16.00;;;;;12.36;100.00;101434.03;2102125;28;46531;-51
2024/03/07 03:49:55;;;;;;;;;28.00;26.25;;;;;12.37;100.00;101438.44;2103402;28;46774;-51
2024/03/07 03:50:55;;;;;;;;;29.50;23.00;;;;;12.35;100.00;101437.59;2103825;28;46858;-52
2024/03/07 03:51:56;;;;;;;;;21.00;20.50;;;;;12.39;100.00;101446.41;2103633;28;46011;-50
2024/03/07 03:52:57;;;;;;;;;22.75;22.75;;;;;12.43;100.00;101445.44;2105008;28;46602;-53
2024/03/07 03:53:57;;;;;;;;;27.20;25.40;;;;;12.41;100.00;101433.94;2104199;28;46236;-52
2024/03/07 03:54:59;;;;;;;;;25.00;25.00;;;;;12.41;100.00;101435.72;2103353;28;46323;-52
2024/03/07 03:55:59;;;;;;;;;27.00;25.40;;;;;12.40;100.00;101437.50;2103879;28;45866;-51
2024/03/07 03:56:59;;;;;;;;;25.75;25.25;;;;;12.40;100.00;101434.84;2103851;28;47023;-50
2024/03/07 03:58:00;;;;;;;;;24.50;24.50;;;;;12.37;100.00;101432.25;2097137;28;46206;-48
2024/03/07 03:59:00;;;;;;;;;23.50;21.00;;;;;12.38;100.00;101432.22;2103224;28;46760;-50
2024/03/07 04:00:09;;;;;;;;;25.25;25.25;;;;;12.40;100.00;101439.28;2104080;28;46232;-50
2024/03/07 04:01:13;;;;;;;;;24.00;21.80;;;;;12.37;100.00;101440.22;2103577;28;47258;-53
2024/03/07 04:02:13;;;;;;;;;24.00;23.00;;;;;12.33;100.00;101436.75;2103562;28;46635;-53
2024/03/07 04:03:13;;;;;;;;;26.00;26.00;;;;;12.34;100.00;101430.53;2103313;28;46637;-53
2024/03/07 04:04:13;;;;;;;;;22.00;21.75;;;;;12.26;100.00;101436.88;2104604;28;46355;-50
2024/03/07 04:05:16;;;;;;;;;23.25;21.75;;;;;12.32;100.00;101428.78;2104197;28;45008;-52
2024/03/07 04:06:16;;;;;;;;;25.60;25.00;;;;;12.35;100.00;101431.41;2103737;28;46471;-52
2024/03/07 04:07:17;;;;;;;;;20.00;20.00;;;;;12.33;100.00;101435.88;2095379;28;46861;-52
2024/03/07 04:08:20;;;;;;;;;25.20;22.20;;;;;12.31;100.00;101435.88;2093892;28;46934;-49
2024/03/07 04:09:20;;;;;;;;;21.60;20.60;;;;;12.29;100.00;101429.72;2104249;28;46213;-51
2024/03/07 04:10:22;;;;;;;;;21.00;19.00;;;;;12.29;100.00;101431.50;2103442;28;46381;-50
2024/03/07 04:11:22;;;;;;;;;21.20;20.60;;;;;12.26;100.00;101427.09;2102784;28;46609;-51
2024/03/07 04:12:22;;;;;;;;;21.50;20.50;;;;;12.24;100.00;101433.38;2103878;28;46313;-53
2024/03/07 04:13:23;;;;;;;;;26.25;25.00;;;;;12.22;100.00;101433.41;2103559;28;46454;-53
2024/03/07 04:14:23;;;;;;;;;26.00;25.00;;;;;12.19;100.00;101430.75;2100252;28;46434;-51
2024/03/07 04:15:26;;;;;;;;;24.25;22.25;;;;;12.28;100.00;101427.09;2103220;28;46836;-54
2024/03/07 04:16:27;;;;;;;;;27.40;22.60;;;;;12.22;100.00;101430.75;2102509;28;46908;-52
2024/03/07 04:17:27;;;;;;;;;25.75;22.75;;;;;12.23;100.00;101432.50;2103905;28;46430;-51
2024/03/07 04:18:28;;;;;;;;;24.25;23.25;;;;;12.22;100.00;101435.19;2103530;28;46430;-53
2024/03/07 04:19:30;;;;;;;;;21.80;21.80;;;;;12.21;100.00;101428.97;2103800;28;46868;-50
2024/03/07 04:20:31;;;;;;;;;23.60;23.60;;;;;12.15;100.00;101429.06;2103800;28;46962;-51
2024/03/07 04:21:31;;;;;;;;;25.00;22.25;;;;;12.14;100.00;101432.63;2103547;28;46949;-51
2024/03/07 04:22:35;;;;;;;;;22.75;22.75;;;;;12.17;100.00;101429.03;2103774;28;46434;-51
2024/03/07 04:23:35;;;;;;;;;26.40;24.00;;;;;12.23;100.00;101436.94;2103421;28;46812;-49
2024/03/07 04:24:36;;;;;;;;;20.75;20.75;;;;;12.24;100.00;101434.25;2103496;28;45658;-54
2024/03/07 04:25:36;;;;;;;;;22.75;21.25;;;;;12.26;100.00;101432.44;2104194;28;45558;-51
2024/03/07 04:26:37;;;;;;;;;23.00;23.00;;;;;12.15;100.00;101430.84;2103339;28;46450;-52
2024/03/07 04:27:39;;;;;;;;;22.00;18.00;;;;;12.27;100.00;101444.84;2102467;27;46293;-52
2024/03/07 04:28:40;;;;;;;;;18.00;17.40;;;;;12.29;100.00;101431.50;2103956;28;46040;-53
2024/03/07 04:29:40;;;;;;;;;21.75;20.75;;;;;12.30;100.00;101427.94;2103502;28;46517;-52
2024/03/07 04:30:42;;;;;;;;;9.25;6.75;;;;;12.27;100.00;101431.53;2102291;28;46492;-54
2024/03/07 04:31:44;;;;;;;;;27.40;21.20;;;;;12.17;100.00;101435.25;2103661;28;46475;-51
2024/03/07 04:32:44;;;;;;;;;24.80;22.20;;;;;12.12;100.00;101436.22;2102159;28;46437;-51
2024/03/07 04:33:45;;;;;;;;;24.25;22.75;;;;;12.12;100.00;101437.13;2102892;28;46239;-49